Time;durP1;ratioP1;P1;durP2;ratioP2;P2;SDS_P1;SDS_P2;PMS_P1;PMS_P2;Temp;Humidity;BMP_temperature;BMP_pressure;BME280_temperature;BME280_humidity;BME280_pressure;Samples;Min_cycle;Max_cycle;Signal;HPM_P1;HPM_P2
2023/05/11 03:36:38;;;;;;;;;;;12.80;89.00;;;;;;1652226;23;21556;31
2023/05/11 03:39:15;;;;;;;;;;;12.80;89.40;;;;;;5025969;24;20026;-93
2023/05/11 03:42:11;;;;;;;;;;;12.70;88.90;;;;;;4849847;29;19934;-90
2023/05/11 03:45:00;;;;;;;;;;;;;;;;;;;;;
2023/05/11 03:52:26;;;;;;;;;;;12.40;88.30;;;;;;4843583;29;19932;-93
2023/05/11 03:54:56;;;;;;;;;;;12.50;88.50;;;;;;4789105;29;19929;-94
2023/05/11 03:58:35;;;;;;;;;;;12.50;87.80;;;;;;4772327;29;19933;-93
2023/05/11 04:02:00;;;;;;;;;;;12.40;88.00;;;;;;4782557;29;20065;-91
2023/05/11 04:08:42;;;;;;;;;;;12.40;87.40;;;;;;4789021;29;22788;-90
2023/05/11 04:19:02;;;;;;;;;;;12.60;86.40;;;;;;4801325;29;19940;-91
2023/05/11 04:22:47;;;;;;;;;;;12.30;86.40;;;;;;4797664;29;20027;-92
2023/05/11 04:33:34;;;;;;;;;;;12.50;85.80;;;;;;4794483;29;19928;-93
2023/05/11 04:36:24;;;;;;;;;;;12.60;86.30;;;;;;4853499;24;19928;-92
2023/05/11 04:39:37;;;;;;;;;;;12.70;86.10;;;;;;4854422;29;19943;-91
2023/05/11 04:42:57;;;;;;;;;;;;;;;;;;;;;
2023/05/11 04:46:28;;;;;;;;;;;12.80;86.30;;;;;;4811754;29;19981;-91
2023/05/11 04:49:55;;;;;;;;;;;12.50;86.10;;;;;;4812694;29;20051;-91
2023/05/11 04:57:00;;;;;;;;;;;12.80;84.90;;;;;;4892139;24;19935;-91
2023/05/11 05:00:17;;;;;;;;;;;13.00;85.20;;;;;;4845444;29;20043;-93
2023/05/11 05:03:32;;;;;;;;;;;13.00;85.10;;;;;;4843113;29;19932;-92
2023/05/11 05:10:07;;;;;;;;;;;13.10;84.80;;;;;;4848689;29;19936;-92
2023/05/11 05:13:35;;;;;;;;;;;13.20;84.70;;;;;;4821628;29;19940;-93
2023/05/11 05:16:33;;;;;;;;;;;13.30;84.60;;;;;;4820954;29;22102;-92
2023/05/11 05:19:01;;;;;;;;;;;13.30;83.90;;;;;;4821473;29;19932;-93
2023/05/11 05:21:40;;;;;;;;;;;13.50;83.20;;;;;;4824884;29;19928;-92
2023/05/11 05:25:30;;;;;;;;;;;13.50;83.10;;;;;;4862117;29;19931;-92
2023/05/11 05:28:09;;;;;;;;;;;13.60;83.10;;;;;;4813099;29;19932;-93
2023/05/11 05:30:39;;;;;;;;;;;14.00;82.60;;;;;;4815671;29;19929;-93
2023/05/11 05:33:11;;;;;;;;;;;14.00;82.10;;;;;;4803475;29;19960;-93
2023/05/11 05:35:53;;;;;;;;;;;14.00;81.80;;;;;;4797480;29;20173;-93
2023/05/11 05:38:52;;;;;;;;;;;14.00;81.00;;;;;;4809561;29;19933;-93
2023/05/11 05:41:49;;;;;;;;;;;14.30;80.20;;;;;;4753883;29;19933;-94
2023/05/11 05:44:24;;;;;;;;;;;14.40;80.30;;;;;;4762744;29;19937;-95
2023/05/11 05:47:11;;;;;;;;;;;14.60;79.90;;;;;;4773953;29;19956;-92
2023/05/11 05:50:04;;;;;;;;;;;14.90;79.10;;;;;;4755994;29;20100;-92
2023/05/11 05:53:11;;;;;;;;;;;15.00;78.20;;;;;;4725127;30;19962;-95
2023/05/11 05:55:59;;;;;;;;;;;15.10;77.20;;;;;;4708526;30;19938;-94
2023/05/11 06:02:26;;;;;;;;;;;15.10;76.80;;;;;;4720494;30;19946;-94
2023/05/11 06:05:02;;;;;;;;;;;15.20;76.40;;;;;;4708053;30;20386;-91
2023/05/11 06:07:49;;;;;;;;;;;15.50;76.20;;;;;;4737947;30;19944;-95
2023/05/11 06:14:30;;;;;;;;;;;15.80;75.00;;;;;;4734456;30;20407;-93
2023/05/11 06:17:31;;;;;;;;;;;15.30;74.50;;;;;;4758622;29;19929;-92
2023/05/11 06:20:30;;;;;;;;;;;15.90;74.80;;;;;;4744280;30;19938;-94
2023/05/11 06:22:58;;;;;;;;;;;16.40;74.80;;;;;;4726970;30;19938;-93
2023/05/11 06:25:44;;;;;;;;;;;16.60;73.10;;;;;;4704862;30;19930;-94
2023/05/11 06:28:25;;;;;;;;;;;16.90;73.10;;;;;;4737922;30;20412;-94
2023/05/11 06:40:20;;;;;;;;;;;16.60;71.20;;;;;;4688016;30;20375;-89
2023/05/11 06:43:22;;;;;;;;;;;16.70;71.40;;;;;;4693418;30;19930;-94
2023/05/11 06:46:28;;;;;;;;;;;16.80;71.20;;;;;;4753461;30;19974;-94
2023/05/11 06:49:07;;;;;;;;;;;16.90;69.40;;;;;;4727967;29;20040;-92
2023/05/11 06:56:31;;;;;;;;;;;16.70;69.10;;;;;;4720280;30;19996;-91
2023/05/11 06:59:29;;;;;;;;;;;16.90;69.30;;;;;;4720250;29;19936;-93
2023/05/11 07:02:33;;;;;;;;;;;16.30;68.20;;;;;;4723042;29;19937;-94
2023/05/11 07:05:11;;;;;;;;;;;17.30;68.90;;;;;;4773387;29;19937;-96
2023/05/11 07:08:08;;;;;;;;;;;;;;;;;;;;;
2023/05/11 07:19:51;;;;;;;;;;;;;;;;;;;;;
2023/05/11 07:22:42;;;;;;;;;;;17.90;66.00;;;;;;4768468;29;20585;-96
2023/05/11 07:26:20;;;;;;;;;;;18.10;66.90;;;;;;4794661;29;19938;-96
2023/05/11 07:33:10;;;;;;;;;;;18.20;66.50;;;;;;4796175;29;20214;-91
2023/05/11 07:36:01;;;;;;;;;;;18.70;65.60;;;;;;4814943;29;20413;-95
2023/05/11 07:38:35;;;;;;;;;;;18.70;65.40;;;;;;4834798;29;20035;-93
2023/05/11 07:41:38;;;;;;;;;;;18.80;65.50;;;;;;4838861;29;20745;-96
2023/05/11 07:47:36;;;;;;;;;;;19.10;65.00;;;;;;4823849;29;19993;-96
2023/05/11 07:54:03;;;;;;;;;;;19.20;64.70;;;;;;4773599;29;19933;-95
2023/05/11 07:57:04;;;;;;;;;;;19.00;62.60;;;;;;4811063;29;20785;-96
2023/05/11 08:03:14;;;;;;;;;;;19.60;62.80;;;;;;4832087;29;19936;-93
2023/05/11 08:05:58;;;;;;;;;;;19.70;63.40;;;;;;4829517;29;20344;-95
2023/05/11 08:12:01;;;;;;;;;;;19.90;62.30;;;;;;4776934;29;19978;-96
2023/05/11 08:38:53;;;;;;;;;;;20.00;61.80;;;;;;4805494;29;19936;-78
2023/05/11 08:41:25;;;;;;;;;;;20.20;59.30;;;;;;4790375;29;22856;-79
2023/05/11 08:43:53;;;;;;;;;;;20.60;58.70;;;;;;4780446;29;19932;-78
2023/05/11 08:46:22;;;;;;;;;;;20.50;58.20;;;;;;4809913;29;19929;-79
2023/05/11 08:48:49;;;;;;;;;;;20.30;58.70;;;;;;4778150;29;19937;-80
2023/05/11 08:51:17;;;;;;;;;;;20.30;59.50;;;;;;4805470;29;19937;-80
2023/05/11 08:53:44;;;;;;;;;;;20.50;58.80;;;;;;4815468;29;19959;-80
2023/05/11 08:56:16;;;;;;;;;;;20.50;58.10;;;;;;4774837;29;19936;-80
2023/05/11 08:58:43;;;;;;;;;;;20.50;57.90;;;;;;4792771;29;19945;-79
2023/05/11 09:01:16;;;;;;;;;;;20.40;57.60;;;;;;4814113;29;19937;-79
2023/05/11 09:03:45;;;;;;;;;;;20.20;57.20;;;;;;4789385;29;19937;-79
2023/05/11 09:06:13;;;;;;;;;;;20.30;56.20;;;;;;4790523;29;19943;-79
2023/05/11 09:08:41;;;;;;;;;;;20.70;57.00;;;;;;4808823;29;20003;-80
2023/05/11 09:11:11;;;;;;;;;;;20.50;55.70;;;;;;4799921;29;19936;-79
2023/05/11 09:13:58;;;;;;;;;;;20.40;56.20;;;;;;4775979;29;20037;-79
2023/05/11 09:16:25;;;;;;;;;;;20.30;55.50;;;;;;4771922;29;20385;-80
2023/05/11 09:19:03;;;;;;;;;;;20.10;55.30;;;;;;4779448;29;20115;-79
2023/05/11 09:21:30;;;;;;;;;;;20.40;55.90;;;;;;4779384;29;19929;-77
2023/05/11 09:23:58;;;;;;;;;;;20.50;55.30;;;;;;4770734;29;19928;-78
2023/05/11 09:26:28;;;;;;;;;;;20.90;55.60;;;;;;4794072;29;19964;-79
2023/05/11 09:28:58;;;;;;;;;;;20.90;54.60;;;;;;4767304;29;19936;-79
2023/05/11 09:31:41;;;;;;;;;;;21.00;55.00;;;;;;4801765;29;20712;-79
2023/05/11 09:34:19;;;;;;;;;;;20.90;54.00;;;;;;4786070;29;19947;-79
2023/05/11 09:36:53;;;;;;;;;;;20.80;53.70;;;;;;4776853;29;19937;-80
2023/05/11 09:39:31;;;;;;;;;;;20.80;53.80;;;;;;4745688;29;20096;-79
2023/05/11 09:42:16;;;;;;;;;;;20.80;54.10;;;;;;4778838;29;19990;-80
2023/05/11 09:44:44;;;;;;;;;;;20.80;53.80;;;;;;4771078;29;19941;-80
2023/05/11 09:47:23;;;;;;;;;;;20.60;53.30;;;;;;4777375;29;19941;-80
2023/05/11 09:49:51;;;;;;;;;;;20.60;54.30;;;;;;4784684;29;19929;-80
2023/05/11 09:52:19;;;;;;;;;;;20.70;54.70;;;;;;4795063;29;19937;-79
2023/05/11 09:54:49;;;;;;;;;;;20.70;54.80;;;;;;4775943;29;19936;-80
2023/05/11 09:57:26;;;;;;;;;;;20.50;52.90;;;;;;4786433;29;20250;-80
2023/05/11 09:59:58;;;;;;;;;;;20.40;53.30;;;;;;4773180;29;20353;-79
2023/05/11 10:03:00;;;;;;;;;;;20.40;52.80;;;;;;4769595;29;20001;-79
2023/05/11 10:05:28;;;;;;;;;;;20.60;53.80;;;;;;4733517;29;20481;-79
2023/05/11 10:07:57;;;;;;;;;;;20.90;53.90;;;;;;4741236;30;19914;-80
2023/05/11 10:10:32;;;;;;;;;;;21.00;54.00;;;;;;4763062;29;20649;-79
2023/05/11 10:13:04;;;;;;;;;;;20.70;53.70;;;;;;4704747;29;19948;-79
2023/05/11 10:15:34;;;;;;;;;;;19.90;54.50;;;;;;4739498;29;19938;-79
2023/05/11 10:18:01;;;;;;;;;;;20.70;54.90;;;;;;4727104;29;20503;-79
2023/05/11 10:20:32;;;;;;;;;;;20.70;53.70;;;;;;4731192;30;19942;-79
2023/05/11 10:22:59;;;;;;;;;;;20.50;53.70;;;;;;4739440;30;19938;-79
2023/05/11 10:25:28;;;;;;;;;;;20.80;54.70;;;;;;4738307;30;20732;-79
2023/05/11 10:27:58;;;;;;;;;;;20.70;54.20;;;;;;4734343;30;19997;-80
2023/05/11 10:30:25;;;;;;;;;;;20.60;54.40;;;;;;4729529;30;20103;-78
2023/05/11 10:32:56;;;;;;;;;;;21.00;54.60;;;;;;4735181;30;20047;-80
2023/05/11 10:35:31;;;;;;;;;;;21.10;54.20;;;;;;4724069;29;20718;-80
2023/05/11 10:38:01;;;;;;;;;;;20.90;54.00;;;;;;4749702;29;20357;-78
2023/05/11 10:40:34;;;;;;;;;;;21.00;53.90;;;;;;4805281;29;19966;-80
2023/05/11 10:43:32;;;;;;;;;;;21.10;53.30;;;;;;4765348;29;19937;-80
2023/05/11 10:46:32;;;;;;;;;;;21.20;53.90;;;;;;4767005;29;19936;-80
2023/05/11 10:48:59;;;;;;;;;;;21.10;52.30;;;;;;4814715;29;19937;-78
2023/05/11 10:51:40;;;;;;;;;;;21.20;52.40;;;;;;4790630;29;20008;-79
2023/05/11 10:54:19;;;;;;;;;;;20.90;51.90;;;;;;4817260;29;20783;-79
2023/05/11 10:56:55;;;;;;;;;;;20.60;51.20;;;;;;4801496;29;19936;-79
2023/05/11 10:59:24;;;;;;;;;;;20.60;51.90;;;;;;4791175;29;20206;-80
2023/05/11 11:01:57;;;;;;;;;;;20.80;52.10;;;;;;4795595;29;19928;-80
2023/05/11 11:04:39;;;;;;;;;;;20.70;52.90;;;;;;4808640;29;19976;-79
2023/05/11 11:07:17;;;;;;;;;;;20.70;51.10;;;;;;4805088;29;20344;-80
2023/05/11 11:10:03;;;;;;;;;;;20.90;51.50;;;;;;4788932;29;19944;-80
2023/05/11 11:12:33;;;;;;;;;;;21.00;50.90;;;;;;4795582;29;19952;-80
2023/05/11 11:15:04;;;;;;;;;;;20.60;51.80;;;;;;4792559;29;19985;-80
2023/05/11 11:17:33;;;;;;;;;;;20.60;52.40;;;;;;4793433;29;19975;-79
2023/05/11 11:20:20;;;;;;;;;;;20.70;52.00;;;;;;4801139;29;20219;-80
2023/05/11 11:22:51;;;;;;;;;;;21.00;52.80;;;;;;4784174;29;19976;-80
2023/05/11 11:25:51;;;;;;;;;;;21.20;50.90;;;;;;4774450;29;20083;-80
2023/05/11 11:28:23;;;;;;;;;;;20.90;51.00;;;;;;4753204;29;20106;-79
2023/05/11 11:31:08;;;;;;;;;;;20.60;51.40;;;;;;4783286;29;19933;-80
2023/05/11 11:33:36;;;;;;;;;;;19.60;50.10;;;;;;4770045;29;19941;-80
2023/05/11 11:36:46;;;;;;;;;;;20.30;51.20;;;;;;4758997;29;19965;-80
2023/05/11 11:39:13;;;;;;;;;;;20.50;52.00;;;;;;4764670;29;20012;-80
2023/05/11 11:41:42;;;;;;;;;;;20.60;52.50;;;;;;4749939;30;19945;-80
2023/05/11 11:44:22;;;;;;;;;;;20.50;51.40;;;;;;4734859;30;20418;-79
2023/05/11 11:47:09;;;;;;;;;;;20.70;52.00;;;;;;4741035;30;19937;-80
2023/05/11 11:49:42;;;;;;;;;;;21.00;51.50;;;;;;4749273;29;20539;-79
2023/05/11 11:52:10;;;;;;;;;;;21.00;52.80;;;;;;4758441;29;19938;-79
2023/05/11 11:54:41;;;;;;;;;;;21.60;51.90;;;;;;4798947;29;19936;-79
2023/05/11 11:57:32;;;;;;;;;;;20.90;50.60;;;;;;4798034;29;19936;-79
2023/05/11 12:00:20;;;;;;;;;;;21.10;50.40;;;;;;4784612;24;19941;-94
2023/05/11 12:02:54;;;;;;;;;;;22.00;49.20;;;;;;4861130;29;19936;-93
2023/05/11 12:09:07;;;;;;;;;;;21.50;49.70;;;;;;4853944;29;20389;-94
2023/05/11 12:15:02;;;;;;;;;;;21.50;50.20;;;;;;4844586;29;19942;-91
2023/05/11 12:18:02;;;;;;;;;;;21.50;50.60;;;;;;4840478;29;19936;-96
2023/05/11 12:21:45;;;;;;;;;;;20.90;49.70;;;;;;4855959;29;19926;-90
2023/05/11 12:25:22;;;;;;;;;;;21.20;50.70;;;;;;4848045;29;19927;-94
2023/05/11 12:28:49;;;;;;;;;;;21.10;50.30;;;;;;4755272;30;20722;-93
2023/05/11 12:32:34;;;;;;;;;;;21.30;50.10;;;;;;4776644;29;19957;-91
2023/05/11 12:36:05;;;;;;;;;;;21.30;51.20;;;;;;4820426;29;22825;-88
2023/05/11 12:39:07;;;;;;;;;;;21.20;51.90;;;;;;4805588;29;19993;-94
2023/05/11 12:49:13;;;;;;;;;;;;;;;;;;;;;
2023/05/11 12:52:07;;;;;;;;;;;21.50;50.10;;;;;;4695355;30;19938;-96
2023/05/11 12:55:01;;;;;;;;;;;21.50;50.40;;;;;;4698013;30;19935;-94
2023/05/11 12:57:49;;;;;;;;;;;21.50;50.60;;;;;;4677608;30;20080;-89
2023/05/11 13:01:24;;;;;;;;;;;21.30;50.70;;;;;;4703774;30;19957;-93
2023/05/11 13:07:34;;;;;;;;;;;21.40;50.90;;;;;;4701533;30;20093;-89
2023/05/11 13:10:31;;;;;;;;;;;21.30;50.90;;;;;;4729491;30;19945;-92
2023/05/11 13:13:49;;;;;;;;;;;21.00;50.90;;;;;;4717440;30;19962;-89
2023/05/11 13:16:29;;;;;;;;;;;21.10;51.10;;;;;;4677377;30;19945;-91
2023/05/11 13:19:28;;;;;;;;;;;21.40;50.60;;;;;;4675421;30;19931;-94
2023/05/11 13:26:20;;;;;;;;;;;21.30;49.60;;;;;;4628579;30;19940;-94
2023/05/11 13:29:02;;;;;;;;;;;21.30;50.90;;;;;;4649883;30;19932;-93
2023/05/11 13:31:50;;;;;;;;;;;21.60;49.90;;;;;;4704971;30;19926;-94
2023/05/11 13:34:36;;;;;;;;;;;21.60;49.60;;;;;;4710549;30;19944;-90
2023/05/11 13:37:28;;;;;;;;;;;21.50;49.70;;;;;;4728164;30;19938;-92
2023/05/11 13:40:47;;;;;;;;;;;;;;;;;;;;;
2023/05/11 13:43:18;;;;;;;;;;;21.20;50.10;;;;;;4741636;30;20010;-96
2023/05/11 13:45:47;;;;;;;;;;;21.10;50.60;;;;;;4727498;30;19974;-88
2023/05/11 13:48:28;;;;;;;;;;;21.10;51.30;;;;;;4718042;30;20044;-94
2023/05/11 13:51:50;;;;;;;;;;;20.50;50.70;;;;;;4711804;30;19968;-95
2023/05/11 13:54:19;;;;;;;;;;;21.20;50.30;;;;;;4723960;29;19939;-94
2023/05/11 13:57:07;;;;;;;;;;;21.20;49.70;;;;;;4691038;30;19930;-91
2023/05/11 14:00:13;;;;;;;;;;;21.10;50.20;;;;;;4700868;30;19939;-95
2023/05/11 14:02:49;;;;;;;;;;;20.50;50.20;;;;;;4687342;30;19984;-96
2023/05/11 14:05:53;;;;;;;;;;;20.90;50.70;;;;;;4688504;30;19939;-92
2023/05/11 14:09:29;;;;;;;;;;;20.80;50.40;;;;;;4650964;30;19932;-93
2023/05/11 14:13:02;;;;;;;;;;;20.60;50.70;;;;;;4639076;30;19940;-90
2023/05/11 14:15:46;;;;;;;;;;;20.70;51.10;;;;;;4747234;30;19933;-95
2023/05/11 14:27:50;;;;;;;;;;;20.70;50.70;;;;;;4761944;29;19940;-93
2023/05/11 14:30:21;;;;;;;;;;;20.50;50.90;;;;;;4772178;29;20016;-91
2023/05/11 14:33:55;;;;;;;;;;;20.50;51.10;;;;;;4723846;30;19930;-91
2023/05/11 14:37:38;;;;;;;;;;;20.60;51.50;;;;;;4679453;30;19941;-93
2023/05/11 14:40:52;;;;;;;;;;;20.40;51.30;;;;;;4648541;30;20836;-96
2023/05/11 14:44:12;;;;;;;;;;;20.50;51.90;;;;;;4632545;30;19926;-87
2023/05/11 14:47:56;;;;;;;;;;;20.40;51.80;;;;;;4646596;30;20803;-95
2023/05/11 14:50:41;;;;;;;;;;;20.30;52.40;;;;;;4644597;30;19939;-95
2023/05/11 14:53:22;;;;;;;;;;;;;;;;;;;;;
2023/05/11 14:59:54;;;;;;;;;;;20.20;53.00;;;;;;4697421;30;19927;-87
2023/05/11 15:02:54;;;;;;;;;;;20.10;52.80;;;;;;4684235;30;19981;-91
2023/05/11 15:05:38;;;;;;;;;;;20.10;53.40;;;;;;4686644;30;20068;-92
2023/05/11 15:08:22;;;;;;;;;;;19.90;53.50;;;;;;4684834;30;19937;-86
2023/05/11 15:11:26;;;;;;;;;;;20.10;53.70;;;;;;4702529;30;19949;-89
2023/05/11 15:13:57;;;;;;;;;;;19.90;54.10;;;;;;4709038;30;20626;-95
2023/05/11 15:17:05;;;;;;;;;;;19.80;54.90;;;;;;4740320;30;19937;-96
2023/05/11 15:19:41;;;;;;;;;;;19.80;54.90;;;;;;4822101;23;20043;-94
2023/05/11 15:22:31;;;;;;;;;;;19.80;55.40;;;;;;4804781;29;20472;-91
2023/05/11 15:33:45;;;;;;;;;;;19.60;55.90;;;;;;4779746;29;19921;-96
2023/05/11 15:40:57;;;;;;;;;;;19.50;55.90;;;;;;4879857;24;19954;-77
2023/05/11 15:43:24;;;;;;;;;;;19.40;56.40;;;;;;4846873;29;20528;-77
2023/05/11 15:45:53;;;;;;;;;;;19.40;56.70;;;;;;4862135;29;19935;-78
2023/05/11 15:48:20;;;;;;;;;;;19.40;56.80;;;;;;4841633;29;19936;-78
2023/05/11 15:50:48;;;;;;;;;;;19.30;57.20;;;;;;4851913;29;19935;-76
2023/05/11 15:53:15;;;;;;;;;;;19.30;57.50;;;;;;4843373;29;20026;-78
2023/05/11 15:55:44;;;;;;;;;;;19.30;57.60;;;;;;4841692;29;19943;-76
2023/05/11 15:58:11;;;;;;;;;;;19.20;57.70;;;;;;4851421;29;20388;-79
2023/05/11 16:00:38;;;;;;;;;;;19.20;57.60;;;;;;4846590;29;19935;-78
2023/05/11 16:03:06;;;;;;;;;;;19.20;57.50;;;;;;4845059;29;19936;-78
2023/05/11 16:05:36;;;;;;;;;;;19.20;57.70;;;;;;4841015;29;19946;-79
2023/05/11 16:08:05;;;;;;;;;;;18.80;57.30;;;;;;4838264;29;19943;-79
2023/05/11 16:10:32;;;;;;;;;;;19.10;57.80;;;;;;4843645;29;19936;-79
2023/05/11 16:12:59;;;;;;;;;;;19.10;58.20;;;;;;4841715;29;19935;-79
2023/05/11 16:15:30;;;;;;;;;;;19.10;58.60;;;;;;4852929;29;20375;-80
2023/05/11 16:17:57;;;;;;;;;;;19.10;58.60;;;;;;4865637;29;19932;-79
2023/05/11 16:20:27;;;;;;;;;;;19.00;58.50;;;;;;4871412;29;20525;-79
2023/05/11 16:22:54;;;;;;;;;;;19.00;58.90;;;;;;4874722;29;19940;-79
2023/05/11 16:25:22;;;;;;;;;;;18.90;58.70;;;;;;4877587;29;20312;-79
2023/05/11 16:27:49;;;;;;;;;;;18.90;59.20;;;;;;4884621;29;19932;-78
2023/05/11 16:30:16;;;;;;;;;;;18.90;59.20;;;;;;4877893;29;19935;-79
2023/05/11 16:32:51;;;;;;;;;;;18.90;59.70;;;;;;4861829;29;19936;-79
2023/05/11 16:35:21;;;;;;;;;;;18.80;60.30;;;;;;4853169;29;20805;-79
2023/05/11 16:37:48;;;;;;;;;;;18.80;61.00;;;;;;4868712;29;19936;-79
2023/05/11 16:40:20;;;;;;;;;;;18.70;61.70;;;;;;4882550;29;19934;-79
2023/05/11 16:42:55;;;;;;;;;;;18.50;63.20;;;;;;4887791;29;19927;-80
2023/05/11 16:45:23;;;;;;;;;;;18.40;63.00;;;;;;4868404;29;19936;-80
2023/05/11 16:47:50;;;;;;;;;;;18.30;63.10;;;;;;4860341;24;19955;-79
2023/05/11 16:50:17;;;;;;;;;;;18.20;63.10;;;;;;4856243;29;19936;-79
2023/05/11 16:52:45;;;;;;;;;;;18.20;63.50;;;;;;4855245;29;19971;-78
2023/05/11 16:55:21;;;;;;;;;;;18.20;63.50;;;;;;4851881;29;19929;-79
2023/05/11 16:57:50;;;;;;;;;;;18.10;63.50;;;;;;4857960;29;19928;-80
2023/05/11 17:00:17;;;;;;;;;;;18.10;63.70;;;;;;4851405;29;19949;-80
2023/05/11 17:02:45;;;;;;;;;;;18.00;63.50;;;;;;4830509;29;20801;-80
2023/05/11 17:05:13;;;;;;;;;;;18.00;63.60;;;;;;4817722;29;19936;-79
2023/05/11 17:07:43;;;;;;;;;;;18.00;63.80;;;;;;4858137;29;19937;-79
2023/05/11 17:10:11;;;;;;;;;;;18.00;63.80;;;;;;4858648;29;19936;-78
2023/05/11 17:12:40;;;;;;;;;;;18.00;63.70;;;;;;4851242;29;19929;-79
2023/05/11 17:15:10;;;;;;;;;;;18.00;63.80;;;;;;4863482;29;20760;-80
2023/05/11 17:17:38;;;;;;;;;;;17.90;63.80;;;;;;4837275;29;19912;-79
2023/05/11 17:20:07;;;;;;;;;;;17.80;63.90;;;;;;4832728;29;19928;-79
2023/05/11 17:22:37;;;;;;;;;;;17.80;64.00;;;;;;4852841;29;19937;-79
2023/05/11 17:25:06;;;;;;;;;;;17.80;64.10;;;;;;4833525;29;20586;-79
2023/05/11 17:27:36;;;;;;;;;;;17.80;64.30;;;;;;4832311;29;22560;-80
2023/05/11 17:30:04;;;;;;;;;;;17.70;64.40;;;;;;4850695;29;19962;-80
2023/05/11 17:32:35;;;;;;;;;;;17.70;64.70;;;;;;4857911;29;20316;-80
2023/05/11 17:35:06;;;;;;;;;;;17.60;65.50;;;;;;4871118;29;19937;-79
2023/05/11 17:37:33;;;;;;;;;;;17.60;65.60;;;;;;4854042;29;19963;-79
2023/05/11 17:40:03;;;;;;;;;;;17.60;65.80;;;;;;4840792;29;20105;-78
2023/05/11 17:42:32;;;;;;;;;;;17.60;65.30;;;;;;4838392;29;20746;-79
2023/05/11 17:44:59;;;;;;;;;;;17.50;65.30;;;;;;4835494;29;19972;-79
2023/05/11 17:47:26;;;;;;;;;;;17.50;64.90;;;;;;4819282;29;19928;-78
2023/05/11 17:49:57;;;;;;;;;;;18.00;63.90;;;;;;4832709;29;19928;-80
2023/05/11 17:52:24;;;;;;;;;;;17.40;63.30;;;;;;4829632;29;20000;-79
2023/05/11 17:54:56;;;;;;;;;;;17.40;63.20;;;;;;4861461;29;20015;-79
2023/05/11 17:57:25;;;;;;;;;;;17.40;62.70;;;;;;4839189;29;19928;-80
2023/05/11 18:00:09;;;;;;;;;;;17.40;62.40;;;;;;4834694;29;19936;-79
2023/05/11 18:02:47;;;;;;;;;;;17.30;62.60;;;;;;4836775;29;19988;-80
2023/05/11 18:05:17;;;;;;;;;;;17.20;63.10;;;;;;4868817;29;20020;-79
2023/05/11 18:07:44;;;;;;;;;;;16.90;64.40;;;;;;4858491;29;19932;-79
2023/05/11 18:10:12;;;;;;;;;;;16.90;65.10;;;;;;4841790;29;19984;-79
2023/05/11 18:12:39;;;;;;;;;;;16.70;66.10;;;;;;4858347;29;19975;-79
2023/05/11 18:15:10;;;;;;;;;;;16.70;67.00;;;;;;4843461;29;20379;-80
2023/05/11 18:17:37;;;;;;;;;;;16.60;67.30;;;;;;4839661;29;19925;-79
2023/05/11 18:20:13;;;;;;;;;;;16.70;68.00;;;;;;4864194;29;19943;-79
2023/05/11 18:22:41;;;;;;;;;;;16.60;67.80;;;;;;4865060;29;19979;-79
2023/05/11 18:25:10;;;;;;;;;;;16.50;68.20;;;;;;4846779;29;19936;-79
2023/05/11 18:27:47;;;;;;;;;;;16.50;68.70;;;;;;4843139;29;19932;-79
2023/05/11 18:30:17;;;;;;;;;;;16.30;69.20;;;;;;4872337;29;19935;-78
2023/05/11 18:33:02;;;;;;;;;;;16.30;69.70;;;;;;4848947;29;20171;-80
2023/05/11 18:35:29;;;;;;;;;;;17.00;70.40;;;;;;4852228;29;19936;-79
2023/05/11 18:37:58;;;;;;;;;;;16.40;70.40;;;;;;4863384;29;19938;-79
2023/05/11 18:43:14;;;;;;;;;;;16.10;71.20;;;;;;4833312;29;19948;-79
2023/05/11 18:45:44;;;;;;;;;;;16.10;71.80;;;;;;4814121;29;19932;-79
2023/05/11 18:48:28;;;;;;;;;;;16.10;71.90;;;;;;4812824;29;20019;-79
2023/05/11 18:50:55;;;;;;;;;;;16.00;72.60;;;;;;4832604;29;19929;-79
2023/05/11 18:53:28;;;;;;;;;;;16.00;73.30;;;;;;4836993;29;20012;-79
2023/05/11 18:55:57;;;;;;;;;;;15.90;74.30;;;;;;4823759;29;19939;-80
2023/05/11 18:58:31;;;;;;;;;;;15.90;74.30;;;;;;4923964;24;19925;-79
2023/05/11 19:00:58;;;;;;;;;;;15.70;75.50;;;;;;4820961;29;19933;-79
2023/05/11 19:03:30;;;;;;;;;;;15.90;76.40;;;;;;4822192;29;20326;-79
2023/05/11 19:06:01;;;;;;;;;;;15.90;77.90;;;;;;4832582;29;19914;-78
2023/05/11 19:08:31;;;;;;;;;;;15.90;78.30;;;;;;4831611;29;19939;-79
2023/05/11 19:11:02;;;;;;;;;;;15.80;79.70;;;;;;4842281;29;19936;-78
2023/05/11 19:13:30;;;;;;;;;;;15.60;80.90;;;;;;4817708;29;19929;-79
2023/05/11 19:15:57;;;;;;;;;;;15.50;82.90;;;;;;4818382;29;19962;-79
2023/05/11 19:18:26;;;;;;;;;;;15.50;83.90;;;;;;4911621;24;20005;-79
2023/05/11 19:21:15;;;;;;;;;;;15.60;84.30;;;;;;4836047;29;19928;-78
2023/05/11 19:23:43;;;;;;;;;;;15.60;84.90;;;;;;4832986;29;19936;-79
2023/05/11 19:26:10;;;;;;;;;;;15.50;85.60;;;;;;4836481;29;19936;-79
2023/05/11 19:28:37;;;;;;;;;;;15.50;86.20;;;;;;4822709;29;19936;-79
2023/05/11 19:31:05;;;;;;;;;;;15.40;86.30;;;;;;4828958;29;19947;-79
2023/05/11 19:33:32;;;;;;;;;;;15.40;87.30;;;;;;4835322;29;20018;-78
2023/05/11 19:35:59;;;;;;;;;;;15.50;87.40;;;;;;4832254;29;19936;-78
2023/05/11 19:38:27;;;;;;;;;;;15.40;87.50;;;;;;4814430;29;19929;-78
2023/05/11 19:40:54;;;;;;;;;;;15.50;88.10;;;;;;4833600;29;19937;-79
2023/05/11 19:43:22;;;;;;;;;;;15.50;88.30;;;;;;4815214;29;19932;-78
2023/05/11 19:45:49;;;;;;;;;;;15.50;89.10;;;;;;4812956;29;19932;-78
2023/05/11 19:48:16;;;;;;;;;;;15.40;89.60;;;;;;4827203;29;19995;-78
2023/05/11 19:50:43;;;;;;;;;;;15.30;90.40;;;;;;4832403;29;19944;-78
2023/05/11 19:53:11;;;;;;;;;;;15.20;90.90;;;;;;4830530;29;19932;-78
2023/05/11 19:55:39;;;;;;;;;;;15.20;91.60;;;;;;4830682;29;20020;-78
2023/05/11 19:58:06;;;;;;;;;;;15.10;92.00;;;;;;4838462;29;19935;-78
2023/05/11 20:00:34;;;;;;;;;;;15.10;92.00;;;;;;4848739;29;19936;-78
2023/05/11 20:03:01;;;;;;;;;;;15.20;92.40;;;;;;4834291;29;19943;-78
2023/05/11 20:05:28;;;;;;;;;;;15.20;92.50;;;;;;4832445;29;19932;-79
2023/05/11 20:07:55;;;;;;;;;;;15.20;93.50;;;;;;4816206;29;19951;-79
2023/05/11 20:10:22;;;;;;;;;;;15.20;93.40;;;;;;4834788;29;20007;-79
2023/05/11 20:12:50;;;;;;;;;;;15.10;93.40;;;;;;4851202;29;19942;-79
2023/05/11 20:15:17;;;;;;;;;;;15.20;93.70;;;;;;4830862;29;19932;-78
2023/05/11 20:17:44;;;;;;;;;;;15.10;93.60;;;;;;4820986;29;19975;-78
2023/05/11 20:20:11;;;;;;;;;;;15.10;93.20;;;;;;4834481;29;19969;-79
2023/05/11 20:22:38;;;;;;;;;;;15.10;93.80;;;;;;4835993;29;20384;-79
2023/05/11 20:25:06;;;;;;;;;;;15.10;94.00;;;;;;4835301;29;22653;-79
2023/05/11 20:27:43;;;;;;;;;;;15.00;93.20;;;;;;4848989;29;19996;-79
2023/05/11 20:30:12;;;;;;;;;;;15.00;93.50;;;;;;4835306;29;20365;-79
2023/05/11 20:32:39;;;;;;;;;;;15.00;94.10;;;;;;4827270;29;19936;-79
2023/05/11 20:35:26;;;;;;;;;;;15.00;93.90;;;;;;4834718;29;19936;-79
2023/05/11 20:37:54;;;;;;;;;;;15.00;94.40;;;;;;4836530;29;19976;-79
2023/05/11 20:40:21;;;;;;;;;;;15.00;94.60;;;;;;4820792;29;19932;-80
2023/05/11 20:42:48;;;;;;;;;;;15.00;94.90;;;;;;4847457;29;19978;-79
2023/05/11 20:45:15;;;;;;;;;;;15.00;95.00;;;;;;4821975;29;19940;-79
2023/05/11 20:47:42;;;;;;;;;;;15.00;95.40;;;;;;4817326;29;20030;-79
2023/05/11 20:50:09;;;;;;;;;;;14.90;95.90;;;;;;4834953;29;20277;-79
2023/05/11 20:52:36;;;;;;;;;;;14.90;96.60;;;;;;4832817;29;19928;-79
2023/05/11 20:55:04;;;;;;;;;;;14.80;96.20;;;;;;4816380;29;19967;-79
2023/05/11 20:57:31;;;;;;;;;;;14.70;96.60;;;;;;4850151;29;20943;-79
2023/05/11 20:59:58;;;;;;;;;;;14.70;97.10;;;;;;4820889;29;19939;-79
2023/05/11 21:02:28;;;;;;;;;;;14.60;97.40;;;;;;4820590;29;19963;-79
2023/05/11 21:05:00;;;;;;;;;;;14.60;97.90;;;;;;4834485;29;19948;-79
2023/05/11 21:07:28;;;;;;;;;;;14.70;97.90;;;;;;4817965;29;19944;-79
2023/05/11 21:09:55;;;;;;;;;;;14.60;98.10;;;;;;4831558;29;19939;-79
2023/05/11 21:12:22;;;;;;;;;;;14.70;98.20;;;;;;4837867;29;20719;-79
2023/05/11 21:14:49;;;;;;;;;;;14.50;98.10;;;;;;4836622;29;19932;-79
2023/05/11 21:17:15;;;;;;;;;;;14.60;98.30;;;;;;4838020;29;19936;-79
2023/05/11 21:19:43;;;;;;;;;;;14.50;98.30;;;;;;4824260;29;19936;-79
2023/05/11 21:22:10;;;;;;;;;;;14.60;97.80;;;;;;4855622;29;20012;-80
2023/05/11 21:24:37;;;;;;;;;;;14.50;98.30;;;;;;4837329;29;19937;-80
2023/05/11 21:27:04;;;;;;;;;;;14.50;98.90;;;;;;4839090;29;19936;-80
2023/05/11 21:29:31;;;;;;;;;;;14.50;99.70;;;;;;4824257;29;20329;-80
2023/05/11 21:31:58;;;;;;;;;;;14.50;99.90;;;;;;4824587;29;20448;-80
2023/05/11 21:34:25;;;;;;;;;;;14.40;99.50;;;;;;4826975;29;19935;-80
2023/05/11 21:36:52;;;;;;;;;;;14.50;99.90;;;;;;4838816;29;22710;-80
2023/05/11 21:39:19;;;;;;;;;;;13.80;99.60;;;;;;4826599;29;20345;-80
2023/05/11 21:41:46;;;;;;;;;;;14.40;99.50;;;;;;4837162;29;20387;-80
2023/05/11 21:44:13;;;;;;;;;;;14.40;99.70;;;;;;4836346;29;19942;-80
2023/05/11 21:46:41;;;;;;;;;;;14.40;99.90;;;;;;4832580;29;19936;-80
2023/05/11 21:49:08;;;;;;;;;;;14.20;99.90;;;;;;4841798;29;20284;-80